Wells, Nevada
Current Conditions -  °F | °C
As of 1:56 PM on Friday 31 Oct 2014 (Local Time) from KEKO Reporting Station
Clear Clear  
Wind Chill: 66°   Ceiling: Unl
Heat Index: 66°   Visibility: 10mi
Dew Point: 20°   Wind: 13mph
Humidity: 17%   Direction: 210°SSW
Pressure: 29.83"   Gusts: 23mph
Location:  41.11°N, 114.96°W
Report Text: KEKO 312056Z AUTO 21011G20KT 10SM CLR 19/M07 A2983 RMK AO2 SLP070 T01891067 58023
Loading
Personal Weather Stations






























Interactive Weather Map
Tropical Storm Tracking
New forecast layout! Learn more

10-Day Weather Forecast

Advertisements
Track Severe Weather on mobile